createdAt,value
2019-03-21T00:02:17.321Z,66.96
2019-03-21T00:04:49.249Z,66.91
2019-03-21T00:07:19.175Z,66.97
2019-03-21T00:10:41.652Z,67.12
2019-03-21T00:13:12.002Z,67.21
2019-03-21T00:15:46.205Z,67.23
2019-03-21T00:18:16.299Z,67.32
2019-03-21T00:20:46.439Z,67.39
2019-03-21T00:23:16.106Z,67.43
2019-03-21T00:25:46.014Z,67.53
2019-03-21T00:28:15.911Z,67.44
2019-03-21T00:30:45.664Z,67.45
2019-03-21T00:33:15.381Z,67.53
2019-03-21T00:35:45.125Z,67.69
2019-03-21T00:38:14.791Z,67.58
2019-03-21T00:40:44.538Z,67.54
2019-03-21T00:43:14.705Z,67.53
2019-03-21T00:45:44.679Z,67.56
2019-03-21T00:48:15.996Z,67.59
2019-03-21T00:50:45.809Z,67.83
2019-03-21T00:53:15.452Z,67.79
2019-03-21T00:55:45.976Z,67.86
2019-03-21T00:58:15.742Z,68.34
2019-03-21T01:00:49.246Z,68.02
2019-03-21T01:03:19.333Z,68.10
2019-03-21T01:06:00.317Z,68.04
2019-03-21T01:08:46.415Z,68.21
2019-03-21T01:11:36.039Z,68.50
2019-03-21T01:14:05.799Z,68.55
2019-03-21T01:16:35.522Z,68.63
2019-03-21T01:19:05.676Z,68.60
2019-03-21T01:21:36.194Z,68.72
2019-03-21T01:24:06.177Z,68.91
2019-03-21T01:26:36.398Z,68.93
2019-03-21T01:29:06.091Z,68.87
2019-03-21T01:31:35.921Z,68.71
2019-03-21T01:34:07.910Z,68.86
2019-03-21T01:36:37.579Z,68.93
2019-03-21T01:39:08.430Z,68.86
2019-03-21T01:41:38.219Z,69.08
2019-03-21T01:44:07.951Z,69.00
2019-03-21T01:46:40.557Z,68.96
2019-03-21T01:49:12.254Z,68.96
2019-03-21T01:51:47.278Z,68.85
2019-03-21T01:54:17.127Z,68.80
2019-03-21T01:56:46.842Z,68.87
2019-03-21T01:59:19.864Z,68.73
2019-03-21T02:01:49.555Z,68.78
2019-03-21T02:04:19.264Z,68.90
2019-03-21T02:06:50.170Z,69.05
2019-03-21T02:09:20.038Z,69.10
2019-03-21T02:11:49.768Z,69.33
2019-03-21T02:14:19.473Z,69.28
2019-03-21T02:16:49.222Z,69.21
2019-03-21T02:19:20.119Z,69.22
2019-03-21T02:21:49.872Z,69.39
2019-03-21T02:24:19.574Z,69.40
2019-03-21T02:26:49.320Z,69.37
2019-03-21T02:29:19.281Z,69.58
2019-03-21T02:31:49.010Z,69.64
2019-03-21T02:34:18.698Z,69.68
2019-03-21T02:36:48.981Z,69.71
2019-03-21T02:39:18.700Z,69.76
2019-03-21T02:41:48.548Z,69.91
2019-03-21T02:44:18.591Z,69.70
2019-03-21T02:46:51.068Z,69.58
2019-03-21T02:49:20.910Z,69.54
2019-03-21T02:51:53.992Z,69.59
2019-03-21T02:54:23.719Z,69.58
2019-03-21T02:56:53.989Z,69.68
2019-03-21T02:59:23.709Z,69.65
2019-03-21T03:01:53.963Z,69.77
2019-03-21T03:04:23.730Z,69.79
2019-03-21T03:06:55.564Z,69.72
2019-03-21T03:09:25.324Z,69.77
2019-03-21T03:11:55.951Z,69.75
2019-03-21T03:14:25.656Z,69.92
2019-03-21T03:16:56.156Z,69.83
2019-03-21T03:19:26.263Z,69.73
2019-03-21T03:21:55.946Z,69.66
2019-03-21T03:24:27.776Z,69.76
2019-03-21T03:26:57.505Z,69.67
2019-03-21T03:29:29.879Z,69.78
2019-03-21T03:32:00.059Z,69.67
2019-03-21T03:34:29.781Z,69.76
2019-03-21T03:36:59.891Z,69.62
2019-03-21T03:39:29.641Z,69.53
2019-03-21T03:41:59.311Z,69.75
2019-03-21T03:44:28.995Z,69.80
2019-03-21T03:46:58.720Z,69.92
2019-03-21T03:49:28.372Z,69.87
2019-03-21T03:51:58.378Z,69.98
2019-03-21T03:54:28.171Z,69.91
2019-03-21T03:56:57.679Z,69.89
2019-03-21T03:59:27.420Z,69.85
2019-03-21T04:01:57.162Z,69.79
2019-03-21T04:04:27.089Z,69.79
2019-03-21T04:06:56.834Z,69.92
2019-03-21T04:09:28.999Z,69.87
2019-03-21T04:11:58.820Z,69.91
2019-03-21T04:14:28.546Z,69.97
2019-03-21T04:16:58.198Z,69.95
2019-03-21T04:19:27.968Z,69.98
2019-03-21T04:21:57.636Z,70.06
2019-03-21T04:24:27.511Z,70.15
2019-03-21T04:26:57.373Z,70.24
2019-03-21T04:29:27.082Z,70.13
2019-03-21T04:31:56.818Z,70.15
2019-03-21T04:34:26.502Z,70.18
2019-03-21T04:36:56.039Z,70.20
2019-03-21T04:39:25.851Z,70.24
2019-03-21T04:41:55.638Z,70.36
2019-03-21T04:44:25.651Z,70.48
2019-03-21T04:46:55.599Z,70.62
2019-03-21T04:49:25.644Z,70.74
2019-03-21T04:51:55.484Z,70.87
2019-03-21T04:54:25.154Z,70.94
2019-03-21T04:56:54.894Z,70.99
2019-03-21T04:59:24.653Z,71.05
2019-03-21T05:01:54.396Z,71.20
2019-03-21T05:04:24.448Z,71.27
2019-03-21T05:06:54.277Z,71.24
2019-03-21T05:09:24.285Z,71.27
2019-03-21T05:11:55.599Z,71.47
2019-03-21T05:14:25.340Z,71.61
2019-03-21T05:16:55.024Z,71.47
2019-03-21T05:19:25.136Z,71.61
2019-03-21T05:21:58.736Z,71.67
2019-03-21T05:24:28.755Z,71.63
2019-03-21T05:27:17.064Z,71.52
2019-03-21T05:29:53.422Z,71.57
2019-03-21T05:32:23.471Z,71.46
2019-03-21T05:34:55.629Z,71.35
2019-03-21T05:37:25.355Z,71.41
2019-03-21T05:39:55.962Z,71.28
2019-03-21T05:42:26.508Z,71.36
2019-03-21T05:44:59.284Z,71.24
2019-03-21T05:47:29.148Z,71.08
2019-03-21T05:49:58.926Z,71.15
2019-03-21T05:52:29.240Z,71.29
2019-03-21T05:54:58.998Z,71.28
2019-03-21T05:57:29.009Z,71.31
2019-03-21T06:00:00.762Z,71.26
2019-03-21T06:02:33.560Z,70.99
2019-03-21T06:05:03.249Z,71.05
2019-03-21T06:07:43.810Z,70.91
2019-03-21T06:10:17.911Z,70.85
2019-03-21T06:12:48.272Z,70.70
2019-03-21T06:15:21.512Z,70.72
2019-03-21T06:18:15.950Z,70.66
2019-03-21T06:21:35.127Z,70.59
2019-03-21T06:24:27.409Z,70.50
2019-03-21T06:27:14.091Z,70.48
2019-03-21T06:29:36.108Z,70.19
2019-03-21T06:32:05.861Z,69.76
2019-03-21T06:34:35.530Z,69.97
2019-03-21T06:37:06.831Z,69.80
2019-03-21T06:39:36.609Z,69.65
2019-03-21T06:42:06.387Z,69.72
2019-03-21T06:44:36.195Z,69.68
2019-03-21T06:47:06.002Z,69.78
2019-03-21T06:49:35.715Z,69.61
2019-03-21T06:52:05.536Z,69.23
2019-03-21T06:54:35.246Z,69.06
2019-03-21T06:57:05.095Z,69.06
2019-03-21T06:59:34.802Z,68.92
2019-03-21T07:02:04.685Z,68.82
2019-03-21T07:04:34.703Z,68.50
2019-03-21T07:07:08.598Z,68.20
2019-03-21T07:09:38.623Z,67.97
2019-03-21T07:12:08.483Z,67.34
2019-03-21T07:14:38.271Z,67.15
2019-03-21T07:17:07.967Z,66.91
2019-03-21T07:19:38.062Z,66.60
2019-03-21T07:22:07.799Z,66.46
2019-03-21T07:24:38.579Z,65.85
2019-03-21T07:27:08.330Z,65.43
2019-03-21T07:29:41.107Z,65.20
2019-03-21T07:32:10.860Z,64.94
2019-03-21T07:34:42.770Z,64.81
2019-03-21T07:37:12.532Z,65.01
2019-03-21T07:39:42.289Z,64.67
2019-03-21T07:42:12.009Z,64.27
2019-03-21T07:44:41.826Z,63.74
2019-03-21T07:47:13.343Z,63.74
2019-03-21T07:49:43.239Z,63.29
2019-03-21T07:52:13.063Z,62.75
2019-03-21T07:54:42.828Z,62.79
2019-03-21T07:57:12.563Z,62.49
2019-03-21T07:59:42.272Z,62.50
2019-03-21T08:02:12.011Z,61.74
2019-03-21T08:04:42.044Z,61.72
2019-03-21T08:07:11.740Z,61.43
2019-03-21T08:09:41.955Z,61.32
2019-03-21T08:12:12.181Z,61.31
2019-03-21T08:14:43.620Z,60.98
2019-03-21T08:17:16.905Z,60.50
2019-03-21T08:19:46.615Z,60.18
2019-03-21T08:22:18.725Z,60.15
2019-03-21T08:24:48.416Z,60.01
2019-03-21T08:27:20.981Z,60.18
2019-03-21T08:29:51.097Z,60.23
2019-03-21T08:32:21.233Z,59.79
2019-03-21T08:34:50.982Z,59.90
2019-03-21T08:37:20.765Z,59.93
2019-03-21T08:40:09.281Z,59.76
2019-03-21T08:42:39.314Z,59.23
2019-03-21T08:45:09.405Z,58.99
2019-03-21T08:47:39.120Z,58.89
2019-03-21T08:50:09.047Z,58.81
2019-03-21T08:52:39.833Z,58.87
2019-03-21T08:55:12.721Z,58.91
2019-03-21T08:57:42.547Z,58.56
2019-03-21T09:00:14.095Z,57.47
2019-03-21T09:02:43.902Z,57.52
2019-03-21T09:05:13.797Z,57.62
2019-03-21T09:07:43.595Z,56.94
2019-03-21T09:10:13.442Z,56.63
2019-03-21T09:12:43.266Z,56.16
2019-03-21T09:15:16.337Z,56.11
2019-03-21T09:17:46.872Z,55.86
2019-03-21T09:20:18.818Z,55.53
2019-03-21T09:22:48.118Z,55.42
2019-03-21T09:25:18.148Z,55.09
2019-03-21T09:27:47.938Z,54.69
2019-03-21T09:30:36.508Z,54.55
2019-03-21T09:33:06.211Z,55.07
2019-03-21T09:35:36.012Z,54.02
2019-03-21T09:38:05.794Z,53.99
2019-03-21T09:40:35.554Z,53.88
2019-03-21T09:43:06.311Z,53.33
2019-03-21T09:45:36.060Z,53.02
2019-03-21T09:48:05.925Z,52.83
2019-03-21T09:50:35.669Z,52.68
2019-03-21T09:53:05.482Z,53.07
2019-03-21T09:55:35.395Z,52.54
2019-03-21T09:58:05.314Z,52.53
2019-03-21T10:00:35.966Z,52.26
2019-03-21T10:03:06.877Z,52.04
2019-03-21T10:05:36.592Z,51.33
2019-03-21T10:08:06.819Z,51.26
2019-03-21T10:10:36.534Z,50.72
2019-03-21T10:13:06.733Z,50.59
2019-03-21T10:15:39.255Z,50.25
2019-03-21T10:18:09.277Z,50.27
2019-03-21T10:20:39.035Z,49.69
2019-03-21T10:23:08.799Z,49.76
2019-03-21T10:25:38.575Z,49.18
2019-03-21T10:28:08.331Z,48.42
2019-03-21T10:30:39.528Z,48.53
2019-03-21T10:33:10.599Z,47.93
2019-03-21T10:35:40.431Z,48.12
2019-03-21T10:38:10.238Z,48.13
2019-03-21T10:40:40.320Z,47.96
2019-03-21T10:43:10.685Z,47.55
2019-03-21T10:45:40.583Z,47.48
2019-03-21T10:48:10.517Z,46.71
2019-03-21T10:50:40.950Z,46.65
2019-03-21T10:53:11.092Z,46.89
2019-03-21T10:55:40.811Z,45.62
2019-03-21T10:58:10.644Z,46.44
2019-03-21T11:00:40.700Z,46.22
2019-03-21T11:03:10.486Z,45.90
2019-03-21T11:05:41.319Z,46.23
2019-03-21T11:08:11.028Z,46.50
2019-03-21T11:10:40.773Z,46.28
2019-03-21T11:13:10.559Z,46.20
2019-03-21T11:15:40.327Z,45.82
2019-03-21T11:18:10.191Z,45.46
2019-03-21T11:20:40.879Z,45.09
2019-03-21T11:23:10.767Z,45.52
2019-03-21T11:25:40.826Z,44.93
2019-03-21T11:28:12.401Z,45.12
2019-03-21T11:30:45.793Z,44.25
2019-03-21T11:33:15.750Z,43.65
2019-03-21T11:35:47.223Z,43.86
2019-03-21T11:38:17.758Z,42.94
2019-03-21T11:40:48.616Z,42.49
2019-03-21T11:43:20.057Z,42.73
2019-03-21T11:45:49.898Z,41.88
2019-03-21T11:48:19.759Z,41.76
2019-03-21T11:50:49.590Z,42.10
2019-03-21T11:53:19.586Z,42.36
2019-03-21T11:55:49.432Z,42.22
2019-03-21T11:58:19.205Z,41.69
2019-03-21T12:00:49.068Z,41.72
2019-03-21T12:03:18.861Z,41.49
2019-03-21T12:05:48.615Z,41.45
2019-03-21T12:08:18.382Z,40.96
2019-03-21T12:10:48.154Z,40.65
2019-03-21T12:15:47.654Z,37.71
2019-03-21T12:18:17.368Z,34.85
2019-03-21T12:20:47.150Z,34.20
2019-03-21T12:23:16.864Z,33.65
2019-03-21T12:25:46.602Z,33.60
2019-03-21T12:28:16.364Z,33.29
2019-03-21T12:30:47.273Z,32.99
2019-03-21T12:33:16.989Z,32.98
2019-03-21T12:35:46.749Z,33.04
2019-03-21T12:38:17.450Z,32.31
2019-03-21T12:40:47.158Z,32.73
2019-03-21T12:43:16.943Z,31.29
2019-03-21T12:45:46.702Z,31.86
2019-03-21T12:48:16.706Z,31.03
2019-03-21T12:50:46.630Z,30.55
2019-03-21T12:53:17.142Z,30.49
2019-03-21T12:55:46.874Z,29.18
2019-03-21T12:58:16.569Z,29.37
2019-03-21T13:00:46.482Z,29.64
2019-03-21T13:03:16.504Z,30.72
2019-03-21T13:05:46.294Z,30.32
2019-03-21T13:08:16.333Z,30.84
2019-03-21T13:10:48.949Z,31.12
2019-03-21T13:13:18.659Z,30.78
2019-03-21T13:15:48.929Z,30.66
2019-03-21T13:18:21.425Z,29.78
2019-03-21T13:20:51.176Z,29.96
2019-03-21T13:23:21.319Z,29.25
2019-03-21T13:25:51.317Z,29.21
2019-03-21T13:28:23.139Z,29.29
2019-03-21T13:30:53.012Z,29.33
2019-03-21T13:33:22.787Z,29.39
2019-03-21T13:35:52.484Z,29.06
2019-03-21T13:38:22.265Z,29.46
2019-03-21T13:40:51.994Z,29.50
2019-03-21T13:43:24.327Z,28.56
2019-03-21T13:45:56.073Z,29.03
2019-03-21T13:48:26.097Z,29.49
2019-03-21T13:50:55.843Z,28.29
2019-03-21T13:53:25.601Z,28.74
2019-03-21T13:55:55.313Z,28.63
2019-03-21T13:58:24.998Z,28.62
2019-03-21T14:00:54.695Z,28.57
2019-03-21T14:03:25.532Z,28.93
2019-03-21T14:05:55.532Z,28.51
2019-03-21T14:08:25.278Z,28.95
2019-03-21T14:10:55.037Z,29.35
2019-03-21T14:13:24.742Z,29.11
2019-03-21T14:16:13.242Z,27.74
2019-03-21T14:18:43.414Z,28.14
2019-03-21T14:21:14.141Z,28.81
2019-03-21T14:23:44.697Z,27.93
2019-03-21T14:26:14.472Z,28.34
2019-03-21T14:28:46.221Z,28.20
2019-03-21T14:31:15.971Z,28.63
2019-03-21T14:33:45.703Z,28.04
2019-03-21T14:36:15.522Z,29.06
2019-03-21T14:38:46.098Z,29.05
2019-03-21T14:41:18.654Z,29.81
2019-03-21T14:43:50.948Z,30.16
2019-03-21T14:46:26.742Z,30.67
2019-03-21T14:48:57.655Z,31.25
2019-03-21T14:51:27.338Z,31.87
2019-03-21T14:53:57.082Z,31.92
2019-03-21T14:56:26.857Z,32.57
2019-03-21T14:58:56.567Z,33.75
2019-03-21T15:01:26.614Z,33.11
2019-03-21T15:03:56.785Z,33.38
2019-03-21T15:06:26.624Z,33.57
2019-03-21T15:08:57.175Z,34.13
2019-03-21T15:11:26.938Z,33.99
2019-03-21T15:13:56.703Z,34.30
2019-03-21T15:16:26.944Z,34.98
2019-03-21T15:18:56.681Z,34.73
2019-03-21T15:21:29.318Z,35.05
2019-03-21T15:23:59.924Z,35.51
2019-03-21T15:26:32.576Z,35.10
2019-03-21T15:29:02.321Z,35.58
2019-03-21T15:31:34.869Z,35.70
2019-03-21T15:34:04.632Z,36.18
2019-03-21T15:36:34.381Z,36.28
2019-03-21T15:39:05.478Z,36.45
2019-03-21T15:41:35.287Z,36.57
2019-03-21T15:44:05.855Z,36.62
2019-03-21T15:46:36.567Z,36.53
2019-03-21T15:49:06.423Z,37.11
2019-03-21T15:51:36.451Z,37.20
2019-03-21T15:54:06.927Z,37.29
2019-03-21T15:56:36.778Z,37.15
2019-03-21T15:59:06.581Z,36.87
2019-03-21T16:01:36.360Z,37.22
2019-03-21T16:04:06.204Z,37.15
2019-03-21T16:06:38.009Z,37.33
2019-03-21T16:09:11.779Z,37.38
2019-03-21T16:11:41.588Z,37.87
2019-03-21T16:14:11.570Z,37.92
2019-03-21T16:16:41.655Z,37.78
2019-03-21T16:19:11.432Z,37.88
2019-03-21T16:21:42.351Z,38.00
2019-03-21T16:24:12.062Z,37.91
2019-03-21T16:26:41.934Z,37.94
2019-03-21T16:29:11.749Z,37.71
2019-03-21T16:31:41.913Z,38.32
2019-03-21T16:34:11.735Z,37.69
2019-03-21T16:36:41.501Z,37.69
2019-03-21T16:39:11.307Z,37.69
2019-03-21T16:41:41.161Z,37.58
2019-03-21T16:44:10.913Z,38.14
2019-03-21T16:46:40.946Z,37.88
2019-03-21T16:49:10.789Z,38.22
2019-03-21T16:51:40.656Z,37.96
2019-03-21T16:54:16.962Z,38.14
2019-03-21T16:56:42.262Z,38.46
2019-03-21T16:59:12.103Z,38.46
2019-03-21T17:01:42.132Z,38.67
2019-03-21T17:04:11.867Z,38.58
2019-03-21T17:06:45.167Z,38.67
2019-03-21T17:09:15.270Z,39.51
2019-03-21T17:11:45.203Z,39.65
2019-03-21T17:14:15.057Z,39.30
2019-03-21T17:16:44.992Z,39.52
2019-03-21T17:19:15.232Z,39.31
2019-03-21T17:21:45.299Z,39.58
2019-03-21T17:24:15.023Z,39.44
2019-03-21T17:26:48.302Z,39.62
2019-03-21T17:29:18.077Z,39.70
2019-03-21T17:32:06.644Z,40.06
2019-03-21T17:34:36.477Z,40.06
2019-03-21T17:37:06.245Z,40.14
2019-03-21T17:39:36.942Z,40.45
2019-03-21T17:42:10.827Z,40.47
2019-03-21T17:44:41.311Z,40.67
2019-03-21T17:47:12.192Z,40.67
2019-03-21T17:49:45.509Z,40.77
2019-03-21T17:52:15.191Z,40.83
2019-03-21T17:54:45.645Z,41.09
2019-03-21T17:57:16.086Z,41.17
2019-03-21T17:59:48.801Z,41.40
2019-03-21T18:02:18.948Z,41.70
2019-03-21T18:04:48.735Z,41.91
2019-03-21T18:07:18.882Z,42.26
2019-03-21T18:09:49.043Z,42.39
2019-03-21T18:12:21.336Z,42.39
2019-03-21T18:14:51.138Z,42.45
2019-03-21T18:17:23.164Z,42.81
2019-03-21T18:19:52.896Z,43.06
2019-03-21T18:22:22.706Z,43.18
2019-03-21T18:24:54.012Z,43.71
2019-03-21T18:27:27.130Z,43.89
2019-03-21T18:29:56.946Z,44.07
2019-03-21T18:32:27.093Z,44.03
2019-03-21T18:34:56.882Z,44.40
2019-03-21T18:37:26.676Z,44.51
2019-03-21T18:39:56.484Z,44.79
2019-03-21T18:42:27.117Z,45.07
2019-03-21T18:44:58.159Z,45.23
2019-03-21T18:47:28.147Z,45.12
2019-03-21T18:50:01.509Z,45.45
2019-03-21T18:52:31.511Z,45.36
2019-03-21T18:55:06.565Z,45.72
2019-03-21T18:57:36.136Z,45.81
2019-03-21T19:00:06.601Z,46.01
2019-03-21T19:02:36.499Z,46.30
2019-03-21T19:05:07.008Z,46.65
2019-03-21T19:07:36.830Z,46.81
2019-03-21T19:10:07.738Z,46.83
2019-03-21T19:12:37.548Z,47.03
2019-03-21T19:15:10.278Z,47.10
2019-03-21T19:17:40.324Z,47.27
2019-03-21T19:20:10.541Z,47.44
2019-03-21T19:22:40.603Z,47.64
2019-03-21T19:25:18.432Z,47.75
2019-03-21T19:27:45.451Z,47.91
2019-03-21T19:30:15.358Z,47.89
2019-03-21T19:32:56.501Z,48.35
2019-03-21T19:35:40.877Z,48.36
2019-03-21T19:38:12.147Z,48.66
2019-03-21T19:40:46.057Z,48.63
2019-03-21T19:43:18.312Z,49.02
2019-03-21T19:45:49.636Z,49.26
2019-03-21T19:48:20.425Z,49.18
2019-03-21T19:50:50.456Z,49.62
2019-03-21T19:53:21.254Z,50.25
2019-03-21T19:55:51.645Z,50.15
2019-03-21T19:58:24.759Z,50.15
2019-03-21T20:00:55.991Z,50.07
2019-03-21T20:03:28.462Z,49.99
2019-03-21T20:06:01.246Z,50.06
2019-03-21T20:08:32.727Z,50.14
2019-03-21T20:11:05.855Z,50.25
2019-03-21T20:13:35.899Z,50.46
2019-03-21T20:16:07.477Z,50.49
2019-03-21T20:18:37.618Z,50.74
2019-03-21T20:21:10.584Z,51.12
2019-03-21T20:23:41.340Z,51.26
2019-03-21T20:26:11.192Z,51.55
2019-03-21T20:28:47.973Z,51.77
2019-03-21T20:31:18.103Z,51.81
2019-03-21T20:33:50.233Z,52.01
2019-03-21T20:36:22.697Z,52.12
2019-03-21T20:38:52.810Z,51.99
2019-03-21T20:41:23.133Z,52.39
2019-03-21T20:43:56.500Z,52.52
2019-03-21T20:46:29.353Z,52.69
2019-03-21T20:48:57.954Z,53.10
2019-03-21T20:51:30.794Z,53.11
2019-03-21T20:54:01.773Z,53.47
2019-03-21T20:56:31.547Z,53.95
2019-03-21T20:59:01.420Z,53.67
2019-03-21T21:01:33.029Z,53.87
2019-03-21T21:04:03.795Z,54.26
2019-03-21T21:06:33.519Z,54.46
2019-03-21T21:09:03.905Z,54.28
2019-03-21T21:11:35.191Z,54.81
2019-03-21T21:14:05.130Z,54.88
2019-03-21T21:16:36.074Z,55.22
2019-03-21T21:19:07.869Z,55.15
2019-03-21T21:21:39.158Z,55.07
2019-03-21T21:24:09.172Z,55.25
2019-03-21T21:26:39.267Z,55.68
2019-03-21T21:29:09.050Z,55.36
2019-03-21T21:31:38.888Z,55.69
2019-03-21T21:34:08.725Z,55.91
2019-03-21T21:36:38.696Z,55.66
2019-03-21T21:39:09.226Z,56.05
2019-03-21T21:41:39.329Z,56.18
2019-03-21T21:44:09.401Z,56.26
2019-03-21T21:46:39.291Z,56.56
2019-03-21T21:49:09.180Z,56.99
2019-03-21T21:51:41.495Z,57.09
2019-03-21T21:54:14.435Z,56.81
2019-03-21T21:56:44.117Z,56.98
2019-03-21T21:59:13.901Z,56.97
2019-03-21T22:01:43.707Z,57.21
2019-03-21T22:04:13.659Z,57.03
2019-03-21T22:06:43.572Z,57.01
2019-03-21T22:09:13.450Z,57.49
2019-03-21T22:11:43.225Z,57.63
2019-03-21T22:14:12.954Z,57.68
2019-03-21T22:16:42.696Z,57.38
2019-03-21T22:19:12.446Z,57.33
2019-03-21T22:21:42.199Z,57.44
2019-03-21T22:24:12.016Z,57.37
2019-03-21T22:26:42.319Z,57.17
2019-03-21T22:29:12.210Z,57.19
2019-03-21T22:31:41.988Z,57.69
2019-03-21T22:34:12.086Z,57.89
2019-03-21T22:36:55.795Z,58.33
2019-03-21T22:39:25.543Z,58.03
2019-03-21T22:41:55.326Z,58.07
2019-03-21T22:44:26.041Z,58.10
2019-03-21T22:46:55.713Z,57.98
2019-03-21T22:49:25.450Z,58.04
2019-03-21T22:51:55.233Z,58.12
2019-03-21T22:54:25.020Z,58.63
2019-03-21T22:56:54.774Z,57.99
2019-03-21T22:59:24.524Z,58.10
2019-03-21T23:01:54.407Z,58.41
2019-03-21T23:04:24.244Z,58.36
2019-03-21T23:06:54.200Z,58.82
2019-03-21T23:09:23.888Z,58.50
2019-03-21T23:11:53.694Z,58.63
2019-03-21T23:14:23.410Z,58.81
2019-03-21T23:16:53.211Z,58.86
2019-03-21T23:19:23.091Z,59.21
2019-03-21T23:21:53.035Z,59.50
2019-03-21T23:24:22.897Z,59.95
2019-03-21T23:26:53.336Z,60.26
2019-03-21T23:29:23.890Z,60.24
2019-03-21T23:31:53.623Z,60.43
2019-03-21T23:34:23.435Z,60.85
2019-03-21T23:36:53.148Z,61.11
2019-03-21T23:39:22.898Z,61.18
2019-03-21T23:41:52.966Z,61.26
2019-03-21T23:44:22.769Z,61.55
2019-03-21T23:46:52.502Z,61.82
2019-03-21T23:49:22.291Z,61.99
2019-03-21T23:51:54.061Z,62.19
2019-03-21T23:54:23.772Z,62.17
2019-03-21T23:57:04.009Z,62.19
2019-03-21T23:59:26.034Z,62.12
